createdAt,value
2022-09-22T00:01:02.856Z,96931.09
2022-09-22T00:03:32.004Z,96933.94
2022-09-22T00:06:01.500Z,96931.22
2022-09-22T00:08:30.881Z,96930.56
2022-09-22T00:11:03.552Z,96924.50
2022-09-22T00:13:33.473Z,96929.63
2022-09-22T00:16:01.697Z,96936.34
2022-09-22T00:18:30.159Z,96931.56
2022-09-22T00:20:57.693Z,96935.41
2022-09-22T00:23:26.392Z,96940.06
2022-09-22T00:25:53.898Z,96938.34
2022-09-22T00:28:22.308Z,96940.81
2022-09-22T00:30:51.599Z,96938.72
2022-09-22T00:33:19.097Z,96943.84
2022-09-22T00:35:46.582Z,96938.00
2022-09-22T00:38:14.117Z,96929.84
2022-09-22T00:40:41.669Z,96934.78
2022-09-22T00:43:17.836Z,96931.31
2022-09-22T00:45:47.077Z,96932.09
2022-09-22T00:48:16.085Z,96928.25
2022-09-22T00:50:44.055Z,96922.91
2022-09-22T00:53:15.231Z,96928.50
2022-09-22T00:55:47.942Z,96926.72
2022-09-22T00:58:18.724Z,96920.19
2022-09-22T01:00:46.326Z,96923.19
2022-09-22T01:03:17.971Z,96926.09
2022-09-22T01:05:48.246Z,96921.88
2022-09-22T01:08:17.236Z,96919.59
2022-09-22T01:10:45.338Z,96922.22
2022-09-22T01:13:24.532Z,96916.13
2022-09-22T01:16:05.246Z,96913.59
2022-09-22T01:18:43.456Z,96912.41
2022-09-22T01:21:20.924Z,96915.41
2022-09-22T01:24:28.501Z,96921.72
2022-09-22T01:27:35.483Z,96912.47
2022-09-22T01:30:30.960Z,96912.59
2022-09-22T01:33:10.718Z,96910.13
2022-09-22T01:35:50.048Z,96915.53
2022-09-22T01:38:26.456Z,96916.03
2022-09-22T01:41:00.365Z,96909.16
2022-09-22T01:43:36.273Z,96915.97
2022-09-22T01:46:10.851Z,96921.03
2022-09-22T01:48:43.505Z,96915.28
2022-09-22T01:51:15.961Z,96909.78
2022-09-22T01:53:49.276Z,96907.00
2022-09-22T01:56:20.471Z,96912.06
2022-09-22T01:58:51.386Z,96910.50
2022-09-22T02:01:24.073Z,96923.19
2022-09-22T02:03:57.160Z,96921.31
2022-09-22T02:06:31.568Z,96924.22
2022-09-22T02:09:03.408Z,96914.47
2022-09-22T02:11:31.799Z,96911.06
2022-09-22T02:13:59.916Z,96906.88
2022-09-22T02:16:29.000Z,96905.53
2022-09-22T02:19:12.040Z,96895.38
2022-09-22T02:21:41.819Z,96896.97
2022-09-22T02:24:28.023Z,96899.56
2022-09-22T02:26:56.434Z,96899.38
2022-09-22T02:29:25.540Z,96890.00
2022-09-22T02:31:56.339Z,96894.28
2022-09-22T02:34:24.058Z,96891.63
2022-09-22T02:37:00.855Z,96885.19
2022-09-22T02:39:35.256Z,96881.16
2022-09-22T02:42:16.660Z,96884.06
2022-09-22T02:44:50.363Z,96881.09
2022-09-22T02:47:27.115Z,96882.41
2022-09-22T02:49:55.324Z,96891.09
2022-09-22T02:52:25.047Z,96888.47
2022-09-22T02:54:54.224Z,96887.28
2022-09-22T02:57:21.964Z,96890.38
2022-09-22T02:59:49.473Z,96883.78
2022-09-22T03:02:16.975Z,96882.53
2022-09-22T03:04:45.904Z,96878.31
2022-09-22T03:07:13.442Z,96883.59
2022-09-22T03:09:40.920Z,96881.69
2022-09-22T03:12:08.487Z,96878.34
2022-09-22T03:14:36.248Z,96874.03
2022-09-22T03:17:03.767Z,96872.47
2022-09-22T03:19:31.286Z,96869.28
2022-09-22T03:22:00.133Z,96867.94
2022-09-22T03:24:27.823Z,96864.38
2022-09-22T03:26:55.319Z,96868.00
2022-09-22T03:29:22.813Z,96866.09
2022-09-22T03:31:50.306Z,96871.72
2022-09-22T03:34:17.775Z,96869.81
2022-09-22T03:36:46.815Z,96878.69
2022-09-22T03:39:15.653Z,96875.56
2022-09-22T03:41:43.168Z,96878.44
2022-09-22T03:44:10.657Z,96877.00
2022-09-22T03:46:38.122Z,96870.56
2022-09-22T03:49:05.585Z,96875.13
2022-09-22T03:51:34.204Z,96869.00
2022-09-22T03:54:01.984Z,96873.28
2022-09-22T03:56:31.326Z,96876.06
2022-09-22T03:58:58.801Z,96879.53
2022-09-22T04:01:26.421Z,96874.72
2022-09-22T04:03:53.946Z,96873.56
2022-09-22T04:06:21.508Z,96877.00
2022-09-22T04:08:48.971Z,96873.16
2022-09-22T04:11:16.546Z,96869.31
2022-09-22T04:13:46.584Z,96871.00
2022-09-22T04:16:14.779Z,96872.22
2022-09-22T04:18:42.327Z,96876.16
2022-09-22T04:21:10.408Z,96872.22
2022-09-22T04:23:38.737Z,96870.22
2022-09-22T04:26:06.606Z,96869.56
2022-09-22T04:28:34.192Z,96867.66
2022-09-22T04:31:03.055Z,96883.72
2022-09-22T04:33:30.555Z,96883.50
2022-09-22T04:35:58.013Z,96881.56
2022-09-22T04:38:25.518Z,96883.88
2022-09-22T04:40:54.154Z,96894.88
2022-09-22T04:43:21.692Z,96891.91
2022-09-22T04:45:49.441Z,96890.44
2022-09-22T04:48:18.522Z,96890.41
2022-09-22T04:50:48.243Z,96885.03
2022-09-22T04:53:16.135Z,96884.44
2022-09-22T04:55:43.626Z,96899.06
2022-09-22T04:58:11.120Z,96899.00
2022-09-22T05:00:38.871Z,96903.03
2022-09-22T05:03:09.542Z,96896.09
2022-09-22T05:05:38.516Z,96898.41
2022-09-22T05:08:07.588Z,96900.94
2022-09-22T05:10:36.680Z,96906.22
2022-09-22T05:13:05.681Z,96888.03
2022-09-22T05:15:34.575Z,96889.66
2022-09-22T05:18:02.311Z,96891.50
2022-09-22T05:20:29.758Z,96893.53
2022-09-22T05:22:58.619Z,96891.50
2022-09-22T05:25:26.430Z,96884.00
2022-09-22T05:27:55.303Z,96887.06
2022-09-22T05:30:24.797Z,96879.09
2022-09-22T05:32:52.723Z,96877.72
2022-09-22T05:35:22.231Z,96885.25
2022-09-22T05:37:51.814Z,96880.94
2022-09-22T05:40:23.776Z,96880.22
2022-09-22T05:42:52.836Z,96882.56
2022-09-22T05:45:21.521Z,96882.97
2022-09-22T05:47:49.223Z,96869.94
2022-09-22T05:50:19.019Z,96883.00
2022-09-22T05:52:46.608Z,96886.03
2022-09-22T05:55:15.056Z,96882.00
2022-09-22T05:57:44.553Z,96879.41
2022-09-22T06:00:13.287Z,96882.09
2022-09-22T06:02:41.054Z,96880.41
2022-09-22T06:05:09.292Z,96885.72
2022-09-22T06:07:36.795Z,96872.69
2022-09-22T06:10:04.746Z,96881.34
2022-09-22T06:12:32.244Z,96877.13
2022-09-22T06:15:01.048Z,96883.84
2022-09-22T06:17:28.542Z,96888.94
2022-09-22T06:19:56.054Z,96885.69
2022-09-22T06:22:24.271Z,96885.94
2022-09-22T06:24:51.776Z,96886.41
2022-09-22T06:27:19.463Z,96875.75
2022-09-22T06:29:46.916Z,96877.28
2022-09-22T06:32:15.754Z,96876.28
2022-09-22T06:34:47.311Z,96877.31
2022-09-22T06:37:16.103Z,96872.22
2022-09-22T06:39:43.545Z,96881.00
2022-09-22T06:42:11.907Z,96868.56
2022-09-22T06:44:40.024Z,96873.72
2022-09-22T06:47:08.504Z,96873.81
2022-09-22T06:49:37.266Z,96887.78
2022-09-22T06:52:05.225Z,96869.06
2022-09-22T06:54:32.666Z,96885.53
2022-09-22T06:57:00.177Z,96883.53
2022-09-22T06:59:28.090Z,96884.91
2022-09-22T07:01:55.653Z,96878.84
2022-09-22T07:04:23.432Z,96869.91
2022-09-22T07:06:52.460Z,96885.91
2022-09-22T07:09:19.976Z,96884.03
2022-09-22T07:11:49.046Z,96884.44
2022-09-22T07:14:16.533Z,96884.38
2022-09-22T07:16:44.324Z,96884.75
2022-09-22T07:19:11.943Z,96885.53
2022-09-22T07:21:40.394Z,96888.91
2022-09-22T07:24:09.295Z,96885.91
2022-09-22T07:26:39.197Z,96885.97
2022-09-22T07:29:08.517Z,96892.34
2022-09-22T07:31:37.037Z,96892.25
2022-09-22T07:34:04.952Z,96889.38
2022-09-22T07:36:34.320Z,96887.03
2022-09-22T07:39:06.475Z,96887.00
2022-09-22T07:41:41.466Z,96889.00
2022-09-22T07:44:27.776Z,96880.88
2022-09-22T07:46:55.562Z,96882.38
2022-09-22T07:49:23.057Z,96893.66
2022-09-22T07:51:54.675Z,96882.69
2022-09-22T07:54:22.870Z,96885.97
2022-09-22T07:56:58.702Z,96887.84
2022-09-22T07:59:27.357Z,96888.84
2022-09-22T08:01:55.628Z,96887.22
2022-09-22T08:04:24.328Z,96888.72
2022-09-22T08:06:55.350Z,96890.16
2022-09-22T08:09:23.712Z,96884.31
2022-09-22T08:11:53.075Z,96885.03
2022-09-22T08:14:23.445Z,96880.78
2022-09-22T08:16:51.849Z,96887.53
2022-09-22T08:19:20.002Z,96891.16
2022-09-22T08:21:51.011Z,96887.53
2022-09-22T08:24:21.803Z,96898.03
2022-09-22T08:26:51.153Z,96888.72
2022-09-22T08:29:20.129Z,96899.06
2022-09-22T08:31:48.010Z,96893.38
2022-09-22T08:34:17.486Z,96896.38
2022-09-22T08:36:47.121Z,96889.56
2022-09-22T08:39:15.064Z,96891.91
2022-09-22T08:41:50.038Z,96880.53
2022-09-22T08:44:26.406Z,96886.28
2022-09-22T08:46:56.638Z,96881.28
2022-09-22T08:49:45.218Z,96878.66
2022-09-22T08:52:19.981Z,96880.13
2022-09-22T08:54:47.552Z,96880.00
2022-09-22T08:57:29.373Z,96872.38
2022-09-22T09:00:04.195Z,96866.53
2022-09-22T09:02:38.159Z,96870.34
2022-09-22T09:05:46.953Z,96876.50
2022-09-22T09:08:47.551Z,96875.44
2022-09-22T09:11:31.668Z,96877.75
2022-09-22T09:14:13.562Z,96869.38
2022-09-22T09:16:50.074Z,96871.16
2022-09-22T09:19:22.471Z,96879.50
2022-09-22T09:21:52.564Z,96867.06
2022-09-22T09:27:22.468Z,96874.03
2022-09-22T09:30:02.368Z,96869.66
2022-09-22T09:32:38.740Z,96872.38
2022-09-22T09:35:10.321Z,96863.41
2022-09-22T09:37:37.844Z,96870.22
2022-09-22T09:40:08.630Z,96867.72
2022-09-22T09:42:36.706Z,96855.75
2022-09-22T09:45:05.700Z,96858.09
2022-09-22T09:47:59.155Z,96864.34
2022-09-22T09:50:29.264Z,96862.66
2022-09-22T09:52:58.255Z,96863.16
2022-09-22T09:55:27.030Z,96858.31
2022-09-22T09:58:07.603Z,96856.22
2022-09-22T10:00:35.976Z,96851.91
2022-09-22T10:03:23.268Z,96857.06
2022-09-22T10:06:02.595Z,96853.06
2022-09-22T10:08:35.082Z,96849.47
2022-09-22T10:11:03.213Z,96853.50
2022-09-22T10:13:33.500Z,96847.00
2022-09-22T10:16:24.768Z,96846.66
2022-09-22T10:19:05.568Z,96853.53
2022-09-22T10:21:34.312Z,96846.28
2022-09-22T10:24:02.137Z,96842.81
2022-09-22T10:26:31.138Z,96850.31
2022-09-22T10:29:18.040Z,96839.97
2022-09-22T10:32:02.483Z,96840.72
2022-09-22T10:34:34.110Z,96841.91
2022-09-22T10:37:02.950Z,96838.13
2022-09-22T10:39:37.640Z,96848.59
2022-09-22T10:42:15.938Z,96836.53
2022-09-22T10:44:48.641Z,96836.06
2022-09-22T10:47:27.611Z,96835.81
2022-09-22T10:50:10.550Z,96834.31
2022-09-22T10:52:50.003Z,96838.56
2022-09-22T10:55:26.301Z,96834.06
2022-09-22T10:58:07.972Z,96841.94
2022-09-22T11:00:38.958Z,96840.72
2022-09-22T11:03:41.156Z,96844.59
2022-09-22T11:06:41.726Z,96843.38
2022-09-22T11:09:37.188Z,96830.53
2022-09-22T11:12:19.927Z,96829.91
2022-09-22T11:15:04.820Z,96828.47
2022-09-22T11:17:52.523Z,96824.97
2022-09-22T11:20:36.744Z,96822.06
2022-09-22T11:23:34.888Z,96821.19
2022-09-22T11:26:17.299Z,96824.16
2022-09-22T11:29:02.098Z,96822.25
2022-09-22T11:31:42.788Z,96829.03
2022-09-22T11:34:28.432Z,96823.97
2022-09-22T11:37:24.909Z,96822.47
2022-09-22T11:40:11.112Z,96813.31
2022-09-22T11:42:48.588Z,96815.53
2022-09-22T11:45:29.648Z,96815.75
2022-09-22T11:48:08.671Z,96809.41
2022-09-22T11:50:50.029Z,96805.88
2022-09-22T11:53:28.680Z,96804.88
2022-09-22T11:56:16.405Z,96790.31
2022-09-22T11:58:46.898Z,96800.84
2022-09-22T12:01:19.120Z,96795.19
2022-09-22T12:03:50.892Z,96791.00
2022-09-22T12:06:20.793Z,96790.59
2022-09-22T12:08:53.188Z,96781.16
2022-09-22T12:11:27.527Z,96782.94
2022-09-22T12:13:57.221Z,96779.34
2022-09-22T12:16:32.161Z,96788.03
2022-09-22T12:19:05.965Z,96777.94
2022-09-22T12:21:48.285Z,96779.63
2022-09-22T12:24:15.909Z,96774.34
2022-09-22T12:26:47.147Z,96779.63
2022-09-22T12:29:25.906Z,96772.50
2022-09-22T12:31:56.653Z,96771.63
2022-09-22T12:34:27.734Z,96771.09
2022-09-22T12:36:59.411Z,96769.00
2022-09-22T12:39:29.538Z,96763.63
2022-09-22T12:42:00.992Z,96761.94
2022-09-22T12:44:32.132Z,96770.44
2022-09-22T12:47:02.699Z,96765.91
2022-09-22T12:49:31.615Z,96761.97
2022-09-22T12:51:59.563Z,96754.09
2022-09-22T12:54:48.493Z,96755.94
2022-09-22T12:57:27.559Z,96755.44
2022-09-22T13:00:16.107Z,96751.59
2022-09-22T13:02:46.014Z,96754.03
2022-09-22T13:05:32.548Z,96755.13
2022-09-22T13:08:00.135Z,96750.16
2022-09-22T13:10:59.410Z,96743.59
2022-09-22T13:13:47.876Z,96744.72
2022-09-22T13:16:35.665Z,96747.78
2022-09-22T13:19:04.304Z,96738.75
2022-09-22T13:21:34.368Z,96735.34
2022-09-22T13:24:03.706Z,96738.88
2022-09-22T13:26:33.436Z,96735.47
2022-09-22T13:29:13.240Z,96724.69
2022-09-22T13:31:43.695Z,96731.03
2022-09-22T13:34:25.091Z,96722.88
2022-09-22T13:36:55.304Z,96717.84
2022-09-22T13:39:25.077Z,96725.97
2022-09-22T13:41:55.654Z,96717.72
2022-09-22T13:44:30.300Z,96715.44
2022-09-22T13:46:59.914Z,96714.75
2022-09-22T13:49:32.001Z,96715.59
2022-09-22T13:52:03.499Z,96712.78
2022-09-22T13:54:34.540Z,96715.19
2022-09-22T13:57:04.520Z,96707.94
2022-09-22T13:59:40.028Z,96712.09
2022-09-22T14:02:10.223Z,96707.09
2022-09-22T14:04:38.538Z,96702.59
2022-09-22T14:07:11.335Z,96701.16
2022-09-22T14:09:40.539Z,96699.34
2022-09-22T14:12:10.824Z,96700.81
2022-09-22T14:14:40.320Z,96697.28
2022-09-22T14:17:14.367Z,96698.56
2022-09-22T14:19:46.471Z,96690.50
2022-09-22T14:22:17.661Z,96678.59
2022-09-22T14:24:48.914Z,96684.69
2022-09-22T14:27:20.613Z,96674.50
2022-09-22T14:29:51.897Z,96683.13
2022-09-22T14:32:26.283Z,96667.03
2022-09-22T14:34:58.288Z,96674.25
2022-09-22T14:37:32.186Z,96671.84
2022-09-22T14:40:03.419Z,96667.41
2022-09-22T14:42:33.599Z,96663.38
2022-09-22T14:45:20.814Z,96662.03
2022-09-22T14:47:48.878Z,96664.06
2022-09-22T14:50:20.089Z,96655.75
2022-09-22T14:52:55.179Z,96658.47
2022-09-22T14:55:31.052Z,96657.00
2022-09-22T14:58:03.340Z,96661.25
2022-09-22T15:00:49.794Z,96654.53
2022-09-22T15:03:21.586Z,96646.56
2022-09-22T15:05:50.475Z,96652.09
2022-09-22T15:08:21.999Z,96650.66
2022-09-22T15:10:54.021Z,96654.66
2022-09-22T15:13:29.618Z,96657.47
2022-09-22T15:15:58.709Z,96644.09
2022-09-22T15:18:30.333Z,96645.56
2022-09-22T15:21:00.312Z,96649.84
2022-09-22T15:23:31.584Z,96647.50
2022-09-22T15:26:03.655Z,96652.44
2022-09-22T15:28:32.268Z,96646.16
2022-09-22T15:31:01.335Z,96650.69
2022-09-22T15:33:28.823Z,96648.28
2022-09-22T15:36:02.926Z,96648.47
2022-09-22T15:38:32.921Z,96647.34
2022-09-22T15:41:01.140Z,96640.00
2022-09-22T15:43:30.929Z,96645.91
2022-09-22T15:46:03.312Z,96647.28
2022-09-22T15:48:34.052Z,96646.34
2022-09-22T15:51:04.643Z,96639.19
2022-09-22T15:53:32.961Z,96647.13
2022-09-22T15:56:03.636Z,96647.81
2022-09-22T15:58:35.527Z,96645.31
2022-09-22T16:01:05.590Z,96644.19
2022-09-22T16:03:38.973Z,96646.06
2022-09-22T16:06:11.627Z,96644.50
2022-09-22T16:08:42.409Z,96649.38
2022-09-22T16:11:13.361Z,96645.00
2022-09-22T16:13:40.826Z,96638.16
2022-09-22T16:16:10.649Z,96640.44
2022-09-22T16:18:41.825Z,96639.00
2022-09-22T16:21:19.638Z,96641.81
2022-09-22T16:23:47.176Z,96642.81
2022-09-22T16:26:14.637Z,96643.81
2022-09-22T16:28:42.217Z,96638.50
2022-09-22T16:31:11.257Z,96636.50
2022-09-22T16:33:38.762Z,96639.34
2022-09-22T16:36:06.670Z,96637.38
2022-09-22T16:38:35.118Z,96644.81
2022-09-22T16:41:03.111Z,96639.13
2022-09-22T16:43:30.572Z,96647.16
2022-09-22T16:46:15.774Z,96637.25
2022-09-22T16:48:44.590Z,96639.34
2022-09-22T16:51:15.618Z,96635.81
2022-09-22T16:53:43.083Z,96654.72
2022-09-22T16:56:10.517Z,96649.81
2022-09-22T16:58:38.436Z,96653.63
2022-09-22T17:01:06.628Z,96650.69
2022-09-22T17:03:34.105Z,96653.00
2022-09-22T17:06:08.608Z,96641.66
2022-09-22T17:08:38.676Z,96642.38
2022-09-22T17:11:07.013Z,96644.59
2022-09-22T17:13:35.625Z,96642.03
2022-09-22T17:16:08.040Z,96643.97
2022-09-22T17:18:39.333Z,96635.69
2022-09-22T17:21:09.209Z,96643.09
2022-09-22T17:23:37.313Z,96645.56
2022-09-22T17:26:07.391Z,96639.97
2022-09-22T17:28:35.369Z,96641.06
2022-09-22T17:31:07.435Z,96640.00
2022-09-22T17:33:36.290Z,96648.50
2022-09-22T17:36:05.872Z,96645.53
2022-09-22T17:38:38.146Z,96648.22
2022-09-22T17:41:10.179Z,96652.53
2022-09-22T17:43:39.956Z,96653.91
2022-09-22T17:46:08.469Z,96645.88
2022-09-22T17:48:53.307Z,96652.69
2022-09-22T17:51:49.056Z,96658.97
2022-09-22T17:54:41.106Z,96656.31
2022-09-22T17:57:10.527Z,96663.59
2022-09-22T17:59:39.284Z,96660.06
2022-09-22T18:02:08.604Z,96657.84
2022-09-22T18:04:37.173Z,96660.06
2022-09-22T18:07:06.849Z,96663.50
2022-09-22T18:09:36.800Z,96660.06
2022-09-22T18:12:06.367Z,96659.00
2022-09-22T18:14:34.373Z,96655.03
2022-09-22T18:17:06.574Z,96662.03
2022-09-22T18:19:36.072Z,96661.69
2022-09-22T18:22:06.176Z,96666.63
2022-09-22T18:24:36.020Z,96666.09
2022-09-22T18:27:03.833Z,96662.81
2022-09-22T18:29:31.849Z,96671.19
2022-09-22T18:31:59.735Z,96670.03
2022-09-22T18:34:31.715Z,96675.34
2022-09-22T18:36:59.318Z,96673.44
2022-09-22T18:39:26.843Z,96673.66
2022-09-22T18:41:56.414Z,96679.31
2022-09-22T18:44:25.264Z,96680.50
2022-09-22T18:46:53.844Z,96677.16
2022-09-22T18:49:21.810Z,96680.44
2022-09-22T18:51:50.327Z,96675.06
2022-09-22T18:54:19.420Z,96675.97
2022-09-22T18:56:48.772Z,96676.06
2022-09-22T18:59:19.853Z,96677.75
2022-09-22T19:01:49.332Z,96684.56
2022-09-22T19:04:19.169Z,96679.28
2022-09-22T19:07:02.044Z,96684.31
2022-09-22T19:09:29.526Z,96685.47
2022-09-22T19:11:57.248Z,96685.94
2022-09-22T19:14:26.173Z,96689.00
2022-09-22T19:16:54.184Z,96688.06
2022-09-22T19:19:23.089Z,96687.28
2022-09-22T19:21:51.424Z,96688.63
2022-09-22T19:24:22.955Z,96683.06
2022-09-22T19:26:52.300Z,96675.78
2022-09-22T19:29:20.041Z,96678.09
2022-09-22T19:31:49.366Z,96673.88
2022-09-22T19:34:16.905Z,96675.25
2022-09-22T19:36:44.411Z,96673.38
2022-09-22T19:39:11.907Z,96678.69
2022-09-22T19:41:41.291Z,96674.22
2022-09-22T19:44:09.735Z,96678.50
2022-09-22T19:46:37.350Z,96669.63
2022-09-22T19:49:06.753Z,96671.50
2022-09-22T19:51:34.425Z,96662.50
2022-09-22T19:54:02.040Z,96669.34
2022-09-22T19:56:29.532Z,96672.00
2022-09-22T19:58:57.015Z,96671.44
2022-09-22T20:01:30.033Z,96662.75
2022-09-22T20:03:58.061Z,96664.72
2022-09-22T20:06:27.438Z,96667.22
2022-09-22T20:09:02.627Z,96665.13
2022-09-22T20:11:35.019Z,96663.56
2022-09-22T20:14:20.036Z,96665.22
2022-09-22T20:16:48.060Z,96662.34
2022-09-22T20:19:15.583Z,96658.47
2022-09-22T20:21:45.495Z,96666.72
2022-09-22T20:24:14.790Z,96669.22
2022-09-22T20:26:42.943Z,96671.72
2022-09-22T20:29:10.974Z,96657.47
2022-09-22T20:31:38.503Z,96661.13
2022-09-22T20:34:06.746Z,96653.88
2022-09-22T20:36:37.057Z,96658.97
2022-09-22T20:39:06.958Z,96653.56
2022-09-22T20:41:34.447Z,96657.84
2022-09-22T20:44:02.884Z,96645.72
2022-09-22T20:46:30.429Z,96656.63
2022-09-22T20:48:58.155Z,96654.13
2022-09-22T20:51:25.789Z,96650.00
2022-09-22T20:53:53.270Z,96658.63
2022-09-22T20:56:22.279Z,96649.72
2022-09-22T20:58:49.784Z,96655.56
2022-09-22T21:01:18.283Z,96653.66
2022-09-22T21:03:45.882Z,96654.75
2022-09-22T21:06:15.677Z,96657.78
2022-09-22T21:09:01.976Z,96665.88
2022-09-22T21:11:31.310Z,96652.09
2022-09-22T21:14:01.845Z,96656.28
2022-09-22T21:16:29.948Z,96657.81
2022-09-22T21:18:59.757Z,96661.69
2022-09-22T21:21:28.144Z,96658.78
2022-09-22T21:23:56.549Z,96651.44
2022-09-22T21:26:24.644Z,96651.97
2022-09-22T21:28:54.180Z,96658.94
2022-09-22T21:31:22.602Z,96666.44
2022-09-22T21:33:50.289Z,96661.28
2022-09-22T21:36:20.025Z,96656.84
2022-09-22T21:38:49.745Z,96649.47
2022-09-22T21:41:18.671Z,96661.13
2022-09-22T21:43:46.689Z,96655.31
2022-09-22T21:46:17.416Z,96660.47
2022-09-22T21:48:45.523Z,96657.81
2022-09-22T21:51:15.583Z,96652.25
2022-09-22T21:53:44.397Z,96655.59
2022-09-22T21:56:14.056Z,96658.34
2022-09-22T21:58:43.472Z,96652.22
2022-09-22T22:01:13.325Z,96650.09
2022-09-22T22:03:43.822Z,96655.53
2022-09-22T22:06:13.333Z,96654.06
2022-09-22T22:08:43.427Z,96657.41
2022-09-22T22:11:13.249Z,96646.63
2022-09-22T22:13:42.888Z,96651.34
2022-09-22T22:16:13.569Z,96649.97
2022-09-22T22:18:42.917Z,96644.13
2022-09-22T22:21:12.288Z,96648.56
2022-09-22T22:23:41.450Z,96641.22
2022-09-22T22:26:12.869Z,96633.84
2022-09-22T22:28:41.545Z,96641.34
2022-09-22T22:31:12.513Z,96640.09
2022-09-22T22:33:43.115Z,96638.25
2022-09-22T22:36:12.293Z,96634.91
2022-09-22T22:38:41.061Z,96625.16
2022-09-22T22:41:10.930Z,96632.53
2022-09-22T22:43:39.357Z,96633.53
2022-09-22T22:46:08.109Z,96639.91
2022-09-22T22:48:36.535Z,96635.59
2022-09-22T22:51:11.443Z,96633.06
2022-09-22T22:53:39.293Z,96635.31
2022-09-22T22:56:08.703Z,96636.31
2022-09-22T22:58:39.031Z,96635.00
2022-09-22T23:01:09.943Z,96635.94
2022-09-22T23:03:41.171Z,96634.47
2022-09-22T23:06:11.845Z,96629.97
2022-09-22T23:08:39.759Z,96636.41
2022-09-22T23:11:11.334Z,96631.97
2022-09-22T23:13:40.434Z,96630.69
2022-09-22T23:16:09.716Z,96626.88
2022-09-22T23:18:39.527Z,96621.06
2022-09-22T23:21:08.192Z,96629.03
2022-09-22T23:23:37.904Z,96622.91
2022-09-22T23:26:06.640Z,96617.22
2022-09-22T23:28:35.708Z,96620.31
2022-09-22T23:31:07.668Z,96617.94
2022-09-22T23:33:36.540Z,96614.97
2022-09-22T23:36:05.463Z,96619.41
2022-09-22T23:38:34.872Z,96621.59
2022-09-22T23:41:04.189Z,96624.28
2022-09-22T23:43:32.904Z,96623.69
2022-09-22T23:46:00.926Z,96624.81
2022-09-22T23:48:30.903Z,96616.75
2022-09-22T23:50:59.997Z,96609.09
2022-09-22T23:53:30.701Z,96615.38
2022-09-22T23:55:58.175Z,96607.00
2022-09-22T23:58:27.127Z,96609.78
